sensor_id;sensor_type;location;lat;lon;timestamp;P1;durP1;ratioP1;P2;durP2;ratioP2
43813;SDS011;29669;55.706;37.656;2022-09-16T00:01:15;12.93;;;7.60;;
43813;SDS011;29669;55.706;37.656;2022-09-16T00:04:05;12.45;;;7.07;;
43813;SDS011;29669;55.706;37.656;2022-09-16T00:06:53;12.90;;;7.75;;
43813;SDS011;29669;55.706;37.656;2022-09-16T00:09:41;10.60;;;7.97;;
43813;SDS011;29669;55.706;37.656;2022-09-16T00:12:28;16.02;;;8.90;;
43813;SDS011;29669;55.706;37.656;2022-09-16T00:15:17;16.17;;;8.85;;
43813;SDS011;29669;55.706;37.656;2022-09-16T00:18:05;17.35;;;9.35;;
43813;SDS011;29669;55.706;37.656;2022-09-16T00:20:53;13.02;;;8.80;;
43813;SDS011;29669;55.706;37.656;2022-09-16T00:23:41;14.48;;;9.20;;
43813;SDS011;29669;55.706;37.656;2022-09-16T00:26:29;17.98;;;9.70;;
43813;SDS011;29669;55.706;37.656;2022-09-16T00:29:17;13.55;;;8.85;;
43813;SDS011;29669;55.706;37.656;2022-09-16T00:32:05;13.55;;;8.25;;
43813;SDS011;29669;55.706;37.656;2022-09-16T00:34:52;11.68;;;7.50;;
43813;SDS011;29669;55.706;37.656;2022-09-16T00:37:40;11.52;;;8.15;;
43813;SDS011;29669;55.706;37.656;2022-09-16T00:40:28;13.00;;;8.10;;
43813;SDS011;29669;55.706;37.656;2022-09-16T00:43:17;13.90;;;8.00;;
43813;SDS011;29669;55.706;37.656;2022-09-16T00:46:06;16.95;;;9.82;;
43813;SDS011;29669;55.706;37.656;2022-09-16T00:48:54;15.10;;;9.20;;
43813;SDS011;29669;55.706;37.656;2022-09-16T00:51:43;12.82;;;8.38;;
43813;SDS011;29669;55.706;37.656;2022-09-16T00:54:34;17.13;;;9.60;;
43813;SDS011;29669;55.706;37.656;2022-09-16T00:57:25;19.90;;;9.23;;
43813;SDS011;29669;55.706;37.656;2022-09-16T01:00:13;14.65;;;8.70;;
43813;SDS011;29669;55.706;37.656;2022-09-16T01:03:01;12.40;;;7.90;;
43813;SDS011;29669;55.706;37.656;2022-09-16T01:05:49;14.63;;;8.55;;
43813;SDS011;29669;55.706;37.656;2022-09-16T01:08:37;12.02;;;8.88;;
43813;SDS011;29669;55.706;37.656;2022-09-16T01:11:26;12.95;;;7.95;;
43813;SDS011;29669;55.706;37.656;2022-09-16T01:14:14;13.32;;;8.32;;
43813;SDS011;29669;55.706;37.656;2022-09-16T01:20:34;14.50;;;8.68;;
43813;SDS011;29669;55.706;37.656;2022-09-16T01:23:56;15.55;;;8.38;;
43813;SDS011;29669;55.706;37.656;2022-09-16T01:30:17;11.98;;;7.75;;
43813;SDS011;29669;55.706;37.656;2022-09-16T01:52:56;21.23;;;9.60;;
43813;SDS011;29669;55.706;37.656;2022-09-16T01:55:53;12.88;;;8.73;;
43813;SDS011;29669;55.706;37.656;2022-09-16T02:04:44;15.70;;;8.73;;
43813;SDS011;29669;55.706;37.656;2022-09-16T02:07:37;21.20;;;9.33;;
43813;SDS011;29669;55.706;37.656;2022-09-16T02:10:29;14.50;;;9.20;;
43813;SDS011;29669;55.706;37.656;2022-09-16T02:16:27;17.33;;;9.75;;
43813;SDS011;29669;55.706;37.656;2022-09-16T02:19:17;14.65;;;9.18;;
43813;SDS011;29669;55.706;37.656;2022-09-16T02:22:10;16.05;;;8.27;;
43813;SDS011;29669;55.706;37.656;2022-09-16T02:25:02;15.55;;;8.52;;
43813;SDS011;29669;55.706;37.656;2022-09-16T02:27:54;16.10;;;8.95;;
43813;SDS011;29669;55.706;37.656;2022-09-16T02:30:46;15.13;;;9.07;;
43813;SDS011;29669;55.706;37.656;2022-09-16T02:33:49;16.10;;;9.18;;
43813;SDS011;29669;55.706;37.656;2022-09-16T02:36:48;17.98;;;8.40;;
43813;SDS011;29669;55.706;37.656;2022-09-16T02:39:43;16.27;;;8.18;;
43813;SDS011;29669;55.706;37.656;2022-09-16T02:42:35;14.60;;;8.65;;
43813;SDS011;29669;55.706;37.656;2022-09-16T02:45:24;15.30;;;8.95;;
43813;SDS011;29669;55.706;37.656;2022-09-16T02:57:33;17.60;;;8.53;;
43813;SDS011;29669;55.706;37.656;2022-09-16T03:00:21;19.83;;;9.40;;
43813;SDS011;29669;55.706;37.656;2022-09-16T03:03:11;12.18;;;8.88;;
43813;SDS011;29669;55.706;37.656;2022-09-16T03:06:12;20.13;;;8.68;;
43813;SDS011;29669;55.706;37.656;2022-09-16T03:09:04;13.68;;;8.43;;
43813;SDS011;29669;55.706;37.656;2022-09-16T03:15:14;16.48;;;9.07;;
43813;SDS011;29669;55.706;37.656;2022-09-16T03:21:25;19.00;;;8.32;;
43813;SDS011;29669;55.706;37.656;2022-09-16T03:24:37;19.13;;;7.90;;
43813;SDS011;29669;55.706;37.656;2022-09-16T03:27:59;14.43;;;8.65;;
43813;SDS011;29669;55.706;37.656;2022-09-16T03:37:31;15.27;;;9.05;;
43813;SDS011;29669;55.706;37.656;2022-09-16T03:40:21;14.68;;;9.73;;
43813;SDS011;29669;55.706;37.656;2022-09-16T03:43:11;13.85;;;9.00;;
43813;SDS011;29669;55.706;37.656;2022-09-16T03:46:01;15.82;;;9.70;;
43813;SDS011;29669;55.706;37.656;2022-09-16T03:48:50;21.42;;;10.27;;
43813;SDS011;29669;55.706;37.656;2022-09-16T03:51:38;13.93;;;8.60;;
43813;SDS011;29669;55.706;37.656;2022-09-16T03:54:29;13.85;;;8.63;;
43813;SDS011;29669;55.706;37.656;2022-09-16T03:57:20;15.20;;;8.98;;
43813;SDS011;29669;55.706;37.656;2022-09-16T04:00:14;19.17;;;9.77;;
43813;SDS011;29669;55.706;37.656;2022-09-16T04:03:06;13.82;;;9.05;;
43813;SDS011;29669;55.706;37.656;2022-09-16T04:05:57;14.32;;;9.50;;
43813;SDS011;29669;55.706;37.656;2022-09-16T04:08:51;14.60;;;8.70;;
43813;SDS011;29669;55.706;37.656;2022-09-16T04:11:45;13.95;;;8.93;;
43813;SDS011;29669;55.706;37.656;2022-09-16T04:14:34;17.02;;;9.10;;
43813;SDS011;29669;55.706;37.656;2022-09-16T04:17:22;13.68;;;9.60;;
43813;SDS011;29669;55.706;37.656;2022-09-16T04:20:10;14.15;;;8.88;;
43813;SDS011;29669;55.706;37.656;2022-09-16T04:22:58;17.35;;;9.57;;
43813;SDS011;29669;55.706;37.656;2022-09-16T04:25:52;12.98;;;8.23;;
43813;SDS011;29669;55.706;37.656;2022-09-16T04:28:44;17.23;;;9.38;;
43813;SDS011;29669;55.706;37.656;2022-09-16T04:31:33;15.15;;;8.57;;
43813;SDS011;29669;55.706;37.656;2022-09-16T04:34:21;12.35;;;8.48;;
43813;SDS011;29669;55.706;37.656;2022-09-16T04:37:09;12.45;;;8.63;;
43813;SDS011;29669;55.706;37.656;2022-09-16T04:39:57;19.55;;;9.43;;
43813;SDS011;29669;55.706;37.656;2022-09-16T04:42:51;16.88;;;9.90;;
43813;SDS011;29669;55.706;37.656;2022-09-16T04:45:39;18.50;;;10.13;;
43813;SDS011;29669;55.706;37.656;2022-09-16T04:48:26;15.45;;;9.70;;
43813;SDS011;29669;55.706;37.656;2022-09-16T04:51:15;15.77;;;10.18;;
43813;SDS011;29669;55.706;37.656;2022-09-16T04:54:04;14.82;;;9.82;;
43813;SDS011;29669;55.706;37.656;2022-09-16T04:56:52;19.33;;;10.15;;
43813;SDS011;29669;55.706;37.656;2022-09-16T04:59:40;21.67;;;10.43;;
43813;SDS011;29669;55.706;37.656;2022-09-16T05:02:28;23.58;;;10.95;;
43813;SDS011;29669;55.706;37.656;2022-09-16T05:05:16;16.85;;;10.27;;
43813;SDS011;29669;55.706;37.656;2022-09-16T05:08:04;18.60;;;10.50;;
43813;SDS011;29669;55.706;37.656;2022-09-16T05:10:52;15.48;;;10.15;;
43813;SDS011;29669;55.706;37.656;2022-09-16T05:13:40;14.60;;;9.65;;
43813;SDS011;29669;55.706;37.656;2022-09-16T05:16:28;15.68;;;10.27;;
43813;SDS011;29669;55.706;37.656;2022-09-16T05:19:17;17.52;;;10.15;;
43813;SDS011;29669;55.706;37.656;2022-09-16T05:22:05;19.70;;;10.68;;
43813;SDS011;29669;55.706;37.656;2022-09-16T05:24:53;15.88;;;10.52;;
43813;SDS011;29669;55.706;37.656;2022-09-16T05:27:41;17.25;;;10.75;;
43813;SDS011;29669;55.706;37.656;2022-09-16T05:30:29;14.18;;;10.20;;
43813;SDS011;29669;55.706;37.656;2022-09-16T05:33:17;17.38;;;10.70;;
43813;SDS011;29669;55.706;37.656;2022-09-16T05:36:09;14.45;;;9.68;;
43813;SDS011;29669;55.706;37.656;2022-09-16T05:39:02;18.38;;;10.60;;
43813;SDS011;29669;55.706;37.656;2022-09-16T05:42:10;24.80;;;11.10;;
43813;SDS011;29669;55.706;37.656;2022-09-16T05:44:58;20.23;;;10.93;;
43813;SDS011;29669;55.706;37.656;2022-09-16T05:47:46;18.33;;;11.05;;
43813;SDS011;29669;55.706;37.656;2022-09-16T05:50:34;20.40;;;12.13;;
43813;SDS011;29669;55.706;37.656;2022-09-16T05:53:23;18.55;;;11.15;;
43813;SDS011;29669;55.706;37.656;2022-09-16T05:56:13;16.73;;;11.52;;
43813;SDS011;29669;55.706;37.656;2022-09-16T05:59:09;20.92;;;11.18;;
43813;SDS011;29669;55.706;37.656;2022-09-16T06:01:59;18.85;;;11.60;;
43813;SDS011;29669;55.706;37.656;2022-09-16T06:04:47;16.70;;;11.00;;
43813;SDS011;29669;55.706;37.656;2022-09-16T06:07:35;21.00;;;10.80;;
43813;SDS011;29669;55.706;37.656;2022-09-16T06:10:22;13.13;;;9.55;;
43813;SDS011;29669;55.706;37.656;2022-09-16T06:13:10;16.38;;;10.10;;
43813;SDS011;29669;55.706;37.656;2022-09-16T06:15:58;18.13;;;9.05;;
43813;SDS011;29669;55.706;37.656;2022-09-16T06:18:47;14.65;;;8.57;;
43813;SDS011;29669;55.706;37.656;2022-09-16T06:21:39;14.60;;;9.18;;
43813;SDS011;29669;55.706;37.656;2022-09-16T06:24:27;13.27;;;8.73;;
43813;SDS011;29669;55.706;37.656;2022-09-16T06:27:15;14.93;;;9.73;;
43813;SDS011;29669;55.706;37.656;2022-09-16T06:30:03;18.73;;;9.63;;
43813;SDS011;29669;55.706;37.656;2022-09-16T06:32:52;12.60;;;9.52;;
43813;SDS011;29669;55.706;37.656;2022-09-16T06:35:40;21.23;;;9.35;;
43813;SDS011;29669;55.706;37.656;2022-09-16T06:38:28;17.00;;;9.93;;
43813;SDS011;29669;55.706;37.656;2022-09-16T06:41:17;14.02;;;9.10;;
43813;SDS011;29669;55.706;37.656;2022-09-16T06:44:06;16.48;;;8.93;;
43813;SDS011;29669;55.706;37.656;2022-09-16T06:46:54;17.52;;;8.93;;
43813;SDS011;29669;55.706;37.656;2022-09-16T06:49:42;15.68;;;8.38;;
43813;SDS011;29669;55.706;37.656;2022-09-16T06:52:34;22.08;;;9.38;;
43813;SDS011;29669;55.706;37.656;2022-09-16T06:55:21;20.30;;;9.15;;
43813;SDS011;29669;55.706;37.656;2022-09-16T06:58:09;16.20;;;8.02;;
43813;SDS011;29669;55.706;37.656;2022-09-16T07:00:57;18.30;;;8.63;;
43813;SDS011;29669;55.706;37.656;2022-09-16T07:03:47;14.00;;;8.75;;
43813;SDS011;29669;55.706;37.656;2022-09-16T07:06:37;12.07;;;8.10;;
43813;SDS011;29669;55.706;37.656;2022-09-16T07:09:46;13.88;;;9.32;;
43813;SDS011;29669;55.706;37.656;2022-09-16T07:12:33;14.45;;;8.85;;
43813;SDS011;29669;55.706;37.656;2022-09-16T07:15:21;11.65;;;8.85;;
43813;SDS011;29669;55.706;37.656;2022-09-16T07:18:09;16.73;;;9.18;;
43813;SDS011;29669;55.706;37.656;2022-09-16T07:21:04;23.75;;;9.77;;
43813;SDS011;29669;55.706;37.656;2022-09-16T07:23:55;12.75;;;8.98;;
43813;SDS011;29669;55.706;37.656;2022-09-16T07:26:47;15.80;;;8.07;;
43813;SDS011;29669;55.706;37.656;2022-09-16T07:29:35;14.63;;;8.55;;
43813;SDS011;29669;55.706;37.656;2022-09-16T07:32:22;12.95;;;8.32;;
43813;SDS011;29669;55.706;37.656;2022-09-16T07:35:10;16.25;;;8.55;;
43813;SDS011;29669;55.706;37.656;2022-09-16T07:37:59;12.02;;;8.63;;
43813;SDS011;29669;55.706;37.656;2022-09-16T07:40:47;16.92;;;9.73;;
43813;SDS011;29669;55.706;37.656;2022-09-16T07:43:36;13.15;;;9.27;;
43813;SDS011;29669;55.706;37.656;2022-09-16T07:46:26;14.85;;;10.07;;
43813;SDS011;29669;55.706;37.656;2022-09-16T07:49:15;19.98;;;9.88;;
43813;SDS011;29669;55.706;37.656;2022-09-16T07:52:03;13.90;;;9.13;;
43813;SDS011;29669;55.706;37.656;2022-09-16T07:54:51;17.23;;;9.50;;
43813;SDS011;29669;55.706;37.656;2022-09-16T07:57:39;11.65;;;8.52;;
43813;SDS011;29669;55.706;37.656;2022-09-16T08:00:27;11.35;;;8.52;;
43813;SDS011;29669;55.706;37.656;2022-09-16T08:03:15;14.68;;;8.77;;
43813;SDS011;29669;55.706;37.656;2022-09-16T08:06:08;14.50;;;8.95;;
43813;SDS011;29669;55.706;37.656;2022-09-16T08:08:59;14.93;;;8.68;;
43813;SDS011;29669;55.706;37.656;2022-09-16T08:12:08;13.77;;;8.25;;
43813;SDS011;29669;55.706;37.656;2022-09-16T08:14:58;16.60;;;10.18;;
43813;SDS011;29669;55.706;37.656;2022-09-16T08:17:46;14.43;;;9.38;;
43813;SDS011;29669;55.706;37.656;2022-09-16T08:20:35;12.93;;;9.00;;
43813;SDS011;29669;55.706;37.656;2022-09-16T08:23:24;13.70;;;9.15;;
43813;SDS011;29669;55.706;37.656;2022-09-16T08:26:13;13.50;;;8.13;;
43813;SDS011;29669;55.706;37.656;2022-09-16T08:29:02;15.88;;;8.93;;
43813;SDS011;29669;55.706;37.656;2022-09-16T08:31:56;13.73;;;8.02;;
43813;SDS011;29669;55.706;37.656;2022-09-16T08:34:45;12.90;;;7.95;;
43813;SDS011;29669;55.706;37.656;2022-09-16T08:37:33;12.52;;;8.18;;
43813;SDS011;29669;55.706;37.656;2022-09-16T08:40:22;13.25;;;8.23;;
43813;SDS011;29669;55.706;37.656;2022-09-16T08:46:12;8.80;;;7.63;;
43813;SDS011;29669;55.706;37.656;2022-09-16T08:52:27;9.68;;;7.28;;
43813;SDS011;29669;55.706;37.656;2022-09-16T08:55:31;10.60;;;6.95;;
43813;SDS011;29669;55.706;37.656;2022-09-16T08:58:34;8.32;;;6.70;;
43813;SDS011;29669;55.706;37.656;2022-09-16T09:01:31;9.18;;;6.95;;
43813;SDS011;29669;55.706;37.656;2022-09-16T09:04:25;12.73;;;7.45;;
43813;SDS011;29669;55.706;37.656;2022-09-16T09:07:26;9.50;;;6.82;;
43813;SDS011;29669;55.706;37.656;2022-09-16T09:10:49;11.90;;;7.15;;
43813;SDS011;29669;55.706;37.656;2022-09-16T09:17:22;14.55;;;7.60;;
43813;SDS011;29669;55.706;37.656;2022-09-16T09:42:18;16.33;;;9.07;;
43813;SDS011;29669;55.706;37.656;2022-09-16T09:51:12;12.90;;;6.45;;
43813;SDS011;29669;55.706;37.656;2022-09-16T09:57:26;14.52;;;6.05;;
43813;SDS011;29669;55.706;37.656;2022-09-16T10:00:19;9.00;;;5.93;;
43813;SDS011;29669;55.706;37.656;2022-09-16T10:03:12;11.02;;;6.07;;
43813;SDS011;29669;55.706;37.656;2022-09-16T10:06:06;9.27;;;6.38;;
43813;SDS011;29669;55.706;37.656;2022-09-16T10:08:56;10.60;;;6.80;;
43813;SDS011;29669;55.706;37.656;2022-09-16T10:11:50;6.57;;;5.05;;
43813;SDS011;29669;55.706;37.656;2022-09-16T10:14:44;6.97;;;5.35;;
43813;SDS011;29669;55.706;37.656;2022-09-16T10:17:32;10.82;;;6.18;;
43813;SDS011;29669;55.706;37.656;2022-09-16T10:20:25;10.43;;;5.93;;
43813;SDS011;29669;55.706;37.656;2022-09-16T10:29:14;10.82;;;6.50;;
43813;SDS011;29669;55.706;37.656;2022-09-16T10:32:05;9.85;;;6.15;;
43813;SDS011;29669;55.706;37.656;2022-09-16T10:34:56;12.27;;;6.60;;
43813;SDS011;29669;55.706;37.656;2022-09-16T10:37:46;6.35;;;5.20;;
43813;SDS011;29669;55.706;37.656;2022-09-16T10:40:48;11.82;;;6.47;;
43813;SDS011;29669;55.706;37.656;2022-09-16T10:43:48;6.25;;;4.82;;
43813;SDS011;29669;55.706;37.656;2022-09-16T10:46:48;7.82;;;5.13;;
43813;SDS011;29669;55.706;37.656;2022-09-16T10:49:48;10.60;;;4.70;;
43813;SDS011;29669;55.706;37.656;2022-09-16T10:52:41;6.70;;;4.88;;
43813;SDS011;29669;55.706;37.656;2022-09-16T10:55:31;11.48;;;5.95;;
43813;SDS011;29669;55.706;37.656;2022-09-16T10:58:25;8.25;;;5.38;;
43813;SDS011;29669;55.706;37.656;2022-09-16T11:01:32;7.15;;;4.63;;
43813;SDS011;29669;55.706;37.656;2022-09-16T11:04:38;5.93;;;4.53;;
43813;SDS011;29669;55.706;37.656;2022-09-16T11:07:47;6.07;;;4.53;;
43813;SDS011;29669;55.706;37.656;2022-09-16T11:24:03;9.23;;;5.30;;
43813;SDS011;29669;55.706;37.656;2022-09-16T11:27:36;6.28;;;4.70;;
43813;SDS011;29669;55.706;37.656;2022-09-16T11:30:39;10.68;;;5.13;;
43813;SDS011;29669;55.706;37.656;2022-09-16T11:46:19;11.00;;;6.15;;
43813;SDS011;29669;55.706;37.656;2022-09-16T11:49:36;14.82;;;7.38;;
43813;SDS011;29669;55.706;37.656;2022-09-16T11:55:44;16.25;;;6.75;;
43813;SDS011;29669;55.706;37.656;2022-09-16T11:58:54;11.63;;;6.78;;
43813;SDS011;29669;55.706;37.656;2022-09-16T12:01:48;12.00;;;6.88;;
43813;SDS011;29669;55.706;37.656;2022-09-16T12:04:47;11.88;;;6.75;;
43813;SDS011;29669;55.706;37.656;2022-09-16T12:07:55;12.40;;;6.70;;
43813;SDS011;29669;55.706;37.656;2022-09-16T12:13:43;17.80;;;8.23;;
43813;SDS011;29669;55.706;37.656;2022-09-16T12:16:50;12.77;;;6.85;;
43813;SDS011;29669;55.706;37.656;2022-09-16T12:22:46;19.13;;;8.02;;
43813;SDS011;29669;55.706;37.656;2022-09-16T12:28:55;17.30;;;9.90;;
43813;SDS011;29669;55.706;37.656;2022-09-16T12:32:03;12.68;;;9.85;;
43813;SDS011;29669;55.706;37.656;2022-09-16T12:34:57;16.38;;;9.32;;
43813;SDS011;29669;55.706;37.656;2022-09-16T12:37:50;10.38;;;6.38;;
43813;SDS011;29669;55.706;37.656;2022-09-16T12:40:47;14.27;;;8.02;;
43813;SDS011;29669;55.706;37.656;2022-09-16T12:44:10;16.27;;;8.20;;
43813;SDS011;29669;55.706;37.656;2022-09-16T12:53:49;11.25;;;7.07;;
43813;SDS011;29669;55.706;37.656;2022-09-16T12:57:04;13.05;;;6.97;;
43813;SDS011;29669;55.706;37.656;2022-09-16T13:00:14;14.70;;;7.95;;
43813;SDS011;29669;55.706;37.656;2022-09-16T13:03:15;11.63;;;7.38;;
43813;SDS011;29669;55.706;37.656;2022-09-16T13:06:29;12.93;;;7.68;;
43813;SDS011;29669;55.706;37.656;2022-09-16T13:09:21;14.55;;;7.32;;
43813;SDS011;29669;55.706;37.656;2022-09-16T13:12:24;15.48;;;7.30;;
43813;SDS011;29669;55.706;37.656;2022-09-16T13:15:30;12.85;;;8.05;;
43813;SDS011;29669;55.706;37.656;2022-09-16T13:18:21;16.10;;;8.20;;
43813;SDS011;29669;55.706;37.656;2022-09-16T13:24:12;11.77;;;8.95;;
43813;SDS011;29669;55.706;37.656;2022-09-16T13:33:27;15.20;;;7.47;;
43813;SDS011;29669;55.706;37.656;2022-09-16T13:39:26;15.23;;;7.80;;
43813;SDS011;29669;55.706;37.656;2022-09-16T13:42:19;19.10;;;7.70;;
43813;SDS011;29669;55.706;37.656;2022-09-16T13:48:28;15.02;;;6.78;;
43813;SDS011;29669;55.706;37.656;2022-09-16T13:51:22;14.02;;;7.07;;
43813;SDS011;29669;55.706;37.656;2022-09-16T14:00:56;9.85;;;6.88;;
43813;SDS011;29669;55.706;37.656;2022-09-16T14:04:12;9.65;;;6.82;;
43813;SDS011;29669;55.706;37.656;2022-09-16T14:13:39;15.52;;;7.53;;
43813;SDS011;29669;55.706;37.656;2022-09-16T14:16:31;10.18;;;6.63;;
43813;SDS011;29669;55.706;37.656;2022-09-16T14:19:26;11.82;;;7.47;;
43813;SDS011;29669;55.706;37.656;2022-09-16T14:22:19;7.47;;;5.40;;
43813;SDS011;29669;55.706;37.656;2022-09-16T14:28:22;7.82;;;6.28;;
43813;SDS011;29669;55.706;37.656;2022-09-16T14:31:19;9.50;;;6.53;;
43813;SDS011;29669;55.706;37.656;2022-09-16T14:34:14;17.80;;;9.63;;
43813;SDS011;29669;55.706;37.656;2022-09-16T14:37:11;11.45;;;7.50;;
43813;SDS011;29669;55.706;37.656;2022-09-16T14:40:05;16.65;;;9.15;;
43813;SDS011;29669;55.706;37.656;2022-09-16T14:45:55;11.40;;;7.07;;
43813;SDS011;29669;55.706;37.656;2022-09-16T14:48:46;9.25;;;6.50;;
43813;SDS011;29669;55.706;37.656;2022-09-16T14:51:35;12.80;;;7.68;;
43813;SDS011;29669;55.706;37.656;2022-09-16T14:54:24;12.32;;;7.30;;
43813;SDS011;29669;55.706;37.656;2022-09-16T14:57:15;11.05;;;6.90;;
43813;SDS011;29669;55.706;37.656;2022-09-16T15:00:11;10.07;;;6.93;;
43813;SDS011;29669;55.706;37.656;2022-09-16T15:06:13;10.05;;;7.20;;
43813;SDS011;29669;55.706;37.656;2022-09-16T15:09:06;10.85;;;6.53;;
43813;SDS011;29669;55.706;37.656;2022-09-16T15:12:02;15.32;;;6.68;;
43813;SDS011;29669;55.706;37.656;2022-09-16T15:14:50;9.05;;;6.95;;
43813;SDS011;29669;55.706;37.656;2022-09-16T15:17:39;9.57;;;7.22;;
43813;SDS011;29669;55.706;37.656;2022-09-16T15:20:31;11.00;;;7.78;;
43813;SDS011;29669;55.706;37.656;2022-09-16T15:23:24;10.57;;;7.28;;
43813;SDS011;29669;55.706;37.656;2022-09-16T15:26:17;11.20;;;7.07;;
43813;SDS011;29669;55.706;37.656;2022-09-16T15:29:23;12.68;;;7.70;;
43813;SDS011;29669;55.706;37.656;2022-09-16T15:32:17;13.85;;;8.00;;
43813;SDS011;29669;55.706;37.656;2022-09-16T15:37:56;12.13;;;8.10;;
43813;SDS011;29669;55.706;37.656;2022-09-16T15:40:44;12.60;;;8.77;;
43813;SDS011;29669;55.706;37.656;2022-09-16T15:43:33;13.07;;;7.72;;
43813;SDS011;29669;55.706;37.656;2022-09-16T15:46:28;12.73;;;8.18;;
43813;SDS011;29669;55.706;37.656;2022-09-16T15:49:17;18.02;;;8.85;;
43813;SDS011;29669;55.706;37.656;2022-09-16T15:52:07;16.02;;;8.10;;
43813;SDS011;29669;55.706;37.656;2022-09-16T15:54:59;12.45;;;7.63;;
43813;SDS011;29669;55.706;37.656;2022-09-16T15:57:50;12.65;;;7.45;;
43813;SDS011;29669;55.706;37.656;2022-09-16T16:06:52;13.68;;;7.43;;
43813;SDS011;29669;55.706;37.656;2022-09-16T16:09:41;10.85;;;7.50;;
43813;SDS011;29669;55.706;37.656;2022-09-16T16:12:30;10.05;;;7.13;;
43813;SDS011;29669;55.706;37.656;2022-09-16T16:15:20;14.68;;;8.32;;
43813;SDS011;29669;55.706;37.656;2022-09-16T16:18:10;13.90;;;8.48;;
43813;SDS011;29669;55.706;37.656;2022-09-16T16:20:59;18.90;;;9.32;;
43813;SDS011;29669;55.706;37.656;2022-09-16T16:23:50;13.45;;;8.63;;
43813;SDS011;29669;55.706;37.656;2022-09-16T16:26:38;17.20;;;8.95;;
43813;SDS011;29669;55.706;37.656;2022-09-16T16:29:26;11.35;;;8.82;;
43813;SDS011;29669;55.706;37.656;2022-09-16T16:32:14;12.73;;;8.18;;
43813;SDS011;29669;55.706;37.656;2022-09-16T16:35:03;14.40;;;8.63;;
43813;SDS011;29669;55.706;37.656;2022-09-16T16:37:51;13.90;;;9.13;;
43813;SDS011;29669;55.706;37.656;2022-09-16T16:40:47;11.18;;;7.90;;
43813;SDS011;29669;55.706;37.656;2022-09-16T16:43:36;16.27;;;9.18;;
43813;SDS011;29669;55.706;37.656;2022-09-16T16:46:24;14.15;;;8.80;;
43813;SDS011;29669;55.706;37.656;2022-09-16T16:49:14;15.02;;;9.00;;
43813;SDS011;29669;55.706;37.656;2022-09-16T16:52:02;14.80;;;10.10;;
43813;SDS011;29669;55.706;37.656;2022-09-16T16:54:51;11.98;;;8.75;;
43813;SDS011;29669;55.706;37.656;2022-09-16T16:57:42;11.60;;;9.20;;
43813;SDS011;29669;55.706;37.656;2022-09-16T17:00:31;13.73;;;9.23;;
43813;SDS011;29669;55.706;37.656;2022-09-16T17:03:19;13.10;;;9.35;;
43813;SDS011;29669;55.706;37.656;2022-09-16T17:06:09;13.85;;;9.73;;
43813;SDS011;29669;55.706;37.656;2022-09-16T17:08:57;11.45;;;8.10;;
43813;SDS011;29669;55.706;37.656;2022-09-16T17:11:54;13.50;;;8.35;;
43813;SDS011;29669;55.706;37.656;2022-09-16T17:14:43;11.88;;;7.90;;
43813;SDS011;29669;55.706;37.656;2022-09-16T17:17:31;14.45;;;8.98;;
43813;SDS011;29669;55.706;37.656;2022-09-16T17:20:19;10.68;;;8.25;;
43813;SDS011;29669;55.706;37.656;2022-09-16T17:23:07;14.88;;;9.50;;
43813;SDS011;29669;55.706;37.656;2022-09-16T17:25:55;14.95;;;9.30;;
43813;SDS011;29669;55.706;37.656;2022-09-16T17:28:46;13.35;;;8.68;;
43813;SDS011;29669;55.706;37.656;2022-09-16T17:31:35;12.82;;;8.98;;
43813;SDS011;29669;55.706;37.656;2022-09-16T17:34:26;13.48;;;8.48;;
43813;SDS011;29669;55.706;37.656;2022-09-16T17:37:14;11.02;;;7.78;;
43813;SDS011;29669;55.706;37.656;2022-09-16T17:40:06;10.23;;;8.05;;
43813;SDS011;29669;55.706;37.656;2022-09-16T17:42:54;11.50;;;7.57;;
43813;SDS011;29669;55.706;37.656;2022-09-16T17:45:45;11.65;;;8.13;;
43813;SDS011;29669;55.706;37.656;2022-09-16T17:48:33;13.05;;;8.40;;
43813;SDS011;29669;55.706;37.656;2022-09-16T17:51:23;9.85;;;7.80;;
43813;SDS011;29669;55.706;37.656;2022-09-16T17:54:11;13.50;;;9.98;;
43813;SDS011;29669;55.706;37.656;2022-09-16T17:57:00;10.23;;;7.82;;
43813;SDS011;29669;55.706;37.656;2022-09-16T17:59:48;11.57;;;7.82;;
43813;SDS011;29669;55.706;37.656;2022-09-16T18:02:36;10.50;;;7.93;;
43813;SDS011;29669;55.706;37.656;2022-09-16T18:05:24;10.35;;;8.07;;
43813;SDS011;29669;55.706;37.656;2022-09-16T18:08:16;14.07;;;9.32;;
43813;SDS011;29669;55.706;37.656;2022-09-16T18:11:04;12.10;;;8.35;;
43813;SDS011;29669;55.706;37.656;2022-09-16T18:13:55;13.77;;;10.10;;
43813;SDS011;29669;55.706;37.656;2022-09-16T18:16:43;17.15;;;10.77;;
43813;SDS011;29669;55.706;37.656;2022-09-16T18:19:31;13.20;;;9.95;;
43813;SDS011;29669;55.706;37.656;2022-09-16T18:22:19;13.55;;;9.50;;
43813;SDS011;29669;55.706;37.656;2022-09-16T18:25:07;13.25;;;9.10;;
43813;SDS011;29669;55.706;37.656;2022-09-16T18:27:56;12.32;;;8.68;;
43813;SDS011;29669;55.706;37.656;2022-09-16T18:30:44;14.45;;;9.02;;
43813;SDS011;29669;55.706;37.656;2022-09-16T18:33:32;13.27;;;8.93;;
43813;SDS011;29669;55.706;37.656;2022-09-16T18:36:22;13.25;;;8.90;;
43813;SDS011;29669;55.706;37.656;2022-09-16T18:39:13;12.55;;;8.95;;
43813;SDS011;29669;55.706;37.656;2022-09-16T18:42:02;14.00;;;8.70;;
43813;SDS011;29669;55.706;37.656;2022-09-16T18:44:50;14.98;;;10.00;;
43813;SDS011;29669;55.706;37.656;2022-09-16T18:47:38;14.88;;;10.23;;
43813;SDS011;29669;55.706;37.656;2022-09-16T18:50:26;17.88;;;10.98;;
43813;SDS011;29669;55.706;37.656;2022-09-16T18:53:13;14.50;;;10.77;;
43813;SDS011;29669;55.706;37.656;2022-09-16T18:56:01;16.45;;;10.57;;
43813;SDS011;29669;55.706;37.656;2022-09-16T18:58:50;13.18;;;10.07;;
43813;SDS011;29669;55.706;37.656;2022-09-16T19:01:59;10.65;;;8.60;;
43813;SDS011;29669;55.706;37.656;2022-09-16T19:04:49;11.95;;;8.50;;
43813;SDS011;29669;55.706;37.656;2022-09-16T19:07:37;12.32;;;8.48;;
43813;SDS011;29669;55.706;37.656;2022-09-16T19:10:27;11.65;;;9.02;;
43813;SDS011;29669;55.706;37.656;2022-09-16T19:13:19;17.35;;;12.95;;
43813;SDS011;29669;55.706;37.656;2022-09-16T19:16:08;15.90;;;12.68;;
43813;SDS011;29669;55.706;37.656;2022-09-16T19:18:57;14.85;;;10.45;;
43813;SDS011;29669;55.706;37.656;2022-09-16T19:21:47;16.98;;;10.90;;
43813;SDS011;29669;55.706;37.656;2022-09-16T19:24:35;14.02;;;9.57;;
43813;SDS011;29669;55.706;37.656;2022-09-16T19:27:23;12.25;;;9.20;;
43813;SDS011;29669;55.706;37.656;2022-09-16T19:30:11;12.07;;;9.13;;
43813;SDS011;29669;55.706;37.656;2022-09-16T19:32:59;10.27;;;8.18;;
43813;SDS011;29669;55.706;37.656;2022-09-16T19:35:47;12.55;;;8.88;;
43813;SDS011;29669;55.706;37.656;2022-09-16T19:38:35;10.63;;;8.75;;
43813;SDS011;29669;55.706;37.656;2022-09-16T19:41:25;11.48;;;8.85;;
43813;SDS011;29669;55.706;37.656;2022-09-16T19:44:15;14.00;;;9.77;;
43813;SDS011;29669;55.706;37.656;2022-09-16T19:47:04;14.20;;;9.80;;
43813;SDS011;29669;55.706;37.656;2022-09-16T19:49:52;18.13;;;12.00;;
43813;SDS011;29669;55.706;37.656;2022-09-16T19:52:40;14.00;;;9.65;;
43813;SDS011;29669;55.706;37.656;2022-09-16T19:55:28;11.57;;;9.57;;
43813;SDS011;29669;55.706;37.656;2022-09-16T19:58:17;15.00;;;9.10;;
43813;SDS011;29669;55.706;37.656;2022-09-16T20:03:57;12.32;;;8.23;;
43813;SDS011;29669;55.706;37.656;2022-09-16T20:06:46;12.75;;;9.02;;